sensor_id;sensor_type;location;lat;lon;timestamp;P1;durP1;ratioP1;P2;durP2;ratioP2
7747;SDS011;3918;42.564;23.164;2023-08-21T04:02:48;8.45;;;5.07;;
7747;SDS011;3918;42.564;23.164;2023-08-21T04:05:15;7.70;;;5.78;;
7747;SDS011;3918;42.564;23.164;2023-08-21T04:07:42;6.85;;;4.90;;
7747;SDS011;3918;42.564;23.164;2023-08-21T04:10:09;5.53;;;4.70;;
7747;SDS011;3918;42.564;23.164;2023-08-21T04:12:35;6.43;;;4.60;;
7747;SDS011;3918;42.564;23.164;2023-08-21T04:15:02;7.20;;;5.00;;
7747;SDS011;3918;42.564;23.164;2023-08-21T04:17:31;6.30;;;5.32;;
7747;SDS011;3918;42.564;23.164;2023-08-21T04:19:59;5.63;;;5.10;;
7747;SDS011;3918;42.564;23.164;2023-08-21T04:22:26;5.97;;;4.93;;
7747;SDS011;3918;42.564;23.164;2023-08-21T04:24:53;6.53;;;5.13;;
7747;SDS011;3918;42.564;23.164;2023-08-21T04:27:19;7.00;;;5.20;;
7747;SDS011;3918;42.564;23.164;2023-08-21T04:29:46;7.20;;;4.97;;
7747;SDS011;3918;42.564;23.164;2023-08-21T04:32:13;14.00;;;5.28;;
7747;SDS011;3918;42.564;23.164;2023-08-21T04:34:40;8.10;;;5.32;;
7747;SDS011;3918;42.564;23.164;2023-08-21T04:37:08;5.75;;;5.20;;
7747;SDS011;3918;42.564;23.164;2023-08-21T04:39:35;9.30;;;4.70;;
7747;SDS011;3918;42.564;23.164;2023-08-21T04:42:02;6.82;;;5.45;;
7747;SDS011;3918;42.564;23.164;2023-08-21T04:44:30;6.72;;;4.90;;
7747;SDS011;3918;42.564;23.164;2023-08-21T04:46:56;6.43;;;4.93;;
7747;SDS011;3918;42.564;23.164;2023-08-21T04:49:23;5.47;;;5.03;;
7747;SDS011;3918;42.564;23.164;2023-08-21T04:51:50;6.35;;;5.38;;
7747;SDS011;3918;42.564;23.164;2023-08-21T04:54:18;5.85;;;4.70;;
7747;SDS011;3918;42.564;23.164;2023-08-21T04:56:45;10.00;;;4.88;;
7747;SDS011;3918;42.564;23.164;2023-08-21T04:59:12;17.05;;;5.03;;
7747;SDS011;3918;42.564;23.164;2023-08-21T05:01:39;5.95;;;4.80;;
7747;SDS011;3918;42.564;23.164;2023-08-21T05:04:06;5.97;;;4.82;;
7747;SDS011;3918;42.564;23.164;2023-08-21T05:06:33;13.73;;;5.30;;
7747;SDS011;3918;42.564;23.164;2023-08-21T05:08:59;6.18;;;4.78;;
7747;SDS011;3918;42.564;23.164;2023-08-21T05:11:29;7.68;;;4.97;;
7747;SDS011;3918;42.564;23.164;2023-08-21T05:13:55;10.90;;;5.18;;
7747;SDS011;3918;42.564;23.164;2023-08-21T05:16:22;6.03;;;4.55;;
7747;SDS011;3918;42.564;23.164;2023-08-21T05:18:49;5.97;;;4.82;;
7747;SDS011;3918;42.564;23.164;2023-08-21T05:21:16;52.92;;;7.10;;
7747;SDS011;3918;42.564;23.164;2023-08-21T05:23:42;22.85;;;6.05;;
7747;SDS011;3918;42.564;23.164;2023-08-21T05:26:11;10.65;;;4.40;;
7747;SDS011;3918;42.564;23.164;2023-08-21T05:28:39;33.15;;;6.30;;
7747;SDS011;3918;42.564;23.164;2023-08-21T05:31:06;5.20;;;4.70;;
7747;SDS011;3918;42.564;23.164;2023-08-21T05:33:33;7.32;;;4.68;;
7747;SDS011;3918;42.564;23.164;2023-08-21T05:36:00;7.45;;;5.13;;
7747;SDS011;3918;42.564;23.164;2023-08-21T05:38:26;9.57;;;4.63;;
7747;SDS011;3918;42.564;23.164;2023-08-21T05:40:53;19.88;;;5.10;;
7747;SDS011;3918;42.564;23.164;2023-08-21T05:43:20;6.60;;;4.97;;
7747;SDS011;3918;42.564;23.164;2023-08-21T05:45:48;10.52;;;5.35;;
7747;SDS011;3918;42.564;23.164;2023-08-21T05:48:15;12.30;;;4.78;;
7747;SDS011;3918;42.564;23.164;2023-08-21T05:50:42;4.90;;;4.50;;
7747;SDS011;3918;42.564;23.164;2023-08-21T05:53:09;6.07;;;4.75;;
7747;SDS011;3918;42.564;23.164;2023-08-21T05:55:36;7.53;;;4.68;;
7747;SDS011;3918;42.564;23.164;2023-08-21T05:58:03;19.05;;;5.40;;
7747;SDS011;3918;42.564;23.164;2023-08-21T06:00:30;17.50;;;5.40;;
7747;SDS011;3918;42.564;23.164;2023-08-21T06:02:58;9.68;;;5.30;;
7747;SDS011;3918;42.564;23.164;2023-08-21T06:05:25;5.13;;;4.82;;
7747;SDS011;3918;42.564;23.164;2023-08-21T06:07:52;11.48;;;4.80;;
7747;SDS011;3918;42.564;23.164;2023-08-21T06:10:18;11.52;;;5.00;;
7747;SDS011;3918;42.564;23.164;2023-08-21T06:12:45;11.32;;;5.15;;
7747;SDS011;3918;42.564;23.164;2023-08-21T06:15:13;6.32;;;5.00;;
7747;SDS011;3918;42.564;23.164;2023-08-21T06:17:40;10.77;;;5.13;;
7747;SDS011;3918;42.564;23.164;2023-08-21T06:20:09;19.85;;;5.43;;
7747;SDS011;3918;42.564;23.164;2023-08-21T06:22:36;6.43;;;5.18;;
7747;SDS011;3918;42.564;23.164;2023-08-21T06:25:03;8.40;;;4.80;;
7747;SDS011;3918;42.564;23.164;2023-08-21T06:27:30;16.23;;;5.50;;
7747;SDS011;3918;42.564;23.164;2023-08-21T06:29:57;6.82;;;4.75;;
7747;SDS011;3918;42.564;23.164;2023-08-21T06:32:24;8.15;;;4.80;;
7747;SDS011;3918;42.564;23.164;2023-08-21T06:34:51;4.95;;;4.65;;
7747;SDS011;3918;42.564;23.164;2023-08-21T06:37:19;10.98;;;5.10;;
7747;SDS011;3918;42.564;23.164;2023-08-21T06:39:46;8.00;;;5.43;;
7747;SDS011;3918;42.564;23.164;2023-08-21T06:42:13;9.73;;;5.18;;
7747;SDS011;3918;42.564;23.164;2023-08-21T06:44:40;17.33;;;5.35;;
7747;SDS011;3918;42.564;23.164;2023-08-21T06:47:07;8.50;;;4.50;;
7747;SDS011;3918;42.564;23.164;2023-08-21T06:49:33;6.55;;;4.88;;
7747;SDS011;3918;42.564;23.164;2023-08-21T06:52:01;11.27;;;4.93;;
7747;SDS011;3918;42.564;23.164;2023-08-21T06:54:30;7.75;;;5.10;;
7747;SDS011;3918;42.564;23.164;2023-08-21T06:56:56;7.20;;;5.38;;
7747;SDS011;3918;42.564;23.164;2023-08-21T06:59:24;8.48;;;4.53;;
7747;SDS011;3918;42.564;23.164;2023-08-21T07:01:50;9.25;;;5.30;;
7747;SDS011;3918;42.564;23.164;2023-08-21T07:04:17;6.68;;;5.28;;
7747;SDS011;3918;42.564;23.164;2023-08-21T07:06:44;7.45;;;5.25;;
7747;SDS011;3918;42.564;23.164;2023-08-21T07:09:11;12.05;;;5.70;;
7747;SDS011;3918;42.564;23.164;2023-08-21T07:11:39;11.60;;;5.20;;
7747;SDS011;3918;42.564;23.164;2023-08-21T07:14:06;7.22;;;4.72;;
7747;SDS011;3918;42.564;23.164;2023-08-21T07:16:33;6.97;;;4.90;;
7747;SDS011;3918;42.564;23.164;2023-08-21T07:18:59;5.77;;;5.27;;
7747;SDS011;3918;42.564;23.164;2023-08-21T07:21:27;21.27;;;5.50;;
7747;SDS011;3918;42.564;23.164;2023-08-21T07:23:54;16.02;;;5.50;;
7747;SDS011;3918;42.564;23.164;2023-08-21T07:26:21;6.43;;;5.80;;
7747;SDS011;3918;42.564;23.164;2023-08-21T07:28:49;10.80;;;5.82;;
7747;SDS011;3918;42.564;23.164;2023-08-21T07:31:17;12.48;;;5.70;;
7747;SDS011;3918;42.564;23.164;2023-08-21T07:33:44;15.75;;;5.50;;
7747;SDS011;3918;42.564;23.164;2023-08-21T07:36:10;16.35;;;6.00;;
7747;SDS011;3918;42.564;23.164;2023-08-21T07:38:42;24.08;;;6.03;;
7747;SDS011;3918;42.564;23.164;2023-08-21T07:41:09;16.23;;;5.60;;
7747;SDS011;3918;42.564;23.164;2023-08-21T07:43:37;15.60;;;5.93;;
7747;SDS011;3918;42.564;23.164;2023-08-21T07:46:06;18.55;;;5.80;;
7747;SDS011;3918;42.564;23.164;2023-08-21T07:48:35;18.58;;;5.85;;
7747;SDS011;3918;42.564;23.164;2023-08-21T07:51:02;8.70;;;5.68;;
7747;SDS011;3918;42.564;23.164;2023-08-21T07:53:28;7.97;;;5.25;;
7747;SDS011;3918;42.564;23.164;2023-08-21T07:55:56;10.45;;;5.25;;
7747;SDS011;3918;42.564;23.164;2023-08-21T07:58:23;5.72;;;5.22;;
7747;SDS011;3918;42.564;23.164;2023-08-21T08:00:50;5.70;;;4.55;;
7747;SDS011;3918;42.564;23.164;2023-08-21T08:03:18;7.95;;;4.97;;
7747;SDS011;3918;42.564;23.164;2023-08-21T08:05:45;5.53;;;4.72;;
7747;SDS011;3918;42.564;23.164;2023-08-21T08:08:11;8.05;;;4.78;;
7747;SDS011;3918;42.564;23.164;2023-08-21T08:10:38;6.70;;;4.95;;
7747;SDS011;3918;42.564;23.164;2023-08-21T08:13:06;6.38;;;5.10;;
7747;SDS011;3918;42.564;23.164;2023-08-21T08:15:33;9.10;;;4.97;;
7747;SDS011;3918;42.564;23.164;2023-08-21T08:18:00;6.10;;;5.13;;
7747;SDS011;3918;42.564;23.164;2023-08-21T08:20:29;10.95;;;5.07;;
7747;SDS011;3918;42.564;23.164;2023-08-21T08:22:55;12.57;;;4.90;;
7747;SDS011;3918;42.564;23.164;2023-08-21T08:25:22;9.35;;;5.00;;
7747;SDS011;3918;42.564;23.164;2023-08-21T08:27:51;6.30;;;4.57;;
7747;SDS011;3918;42.564;23.164;2023-08-21T08:30:18;7.45;;;5.10;;
7747;SDS011;3918;42.564;23.164;2023-08-21T08:32:45;5.93;;;4.75;;
7747;SDS011;3918;42.564;23.164;2023-08-21T08:35:12;7.35;;;5.10;;
7747;SDS011;3918;42.564;23.164;2023-08-21T08:37:40;6.38;;;4.75;;
7747;SDS011;3918;42.564;23.164;2023-08-21T08:40:07;5.45;;;4.95;;
7747;SDS011;3918;42.564;23.164;2023-08-21T08:42:34;16.05;;;5.70;;
7747;SDS011;3918;42.564;23.164;2023-08-21T08:45:02;9.75;;;4.88;;
7747;SDS011;3918;42.564;23.164;2023-08-21T08:47:31;7.78;;;4.70;;
7747;SDS011;3918;42.564;23.164;2023-08-21T08:49:59;5.03;;;4.63;;
7747;SDS011;3918;42.564;23.164;2023-08-21T08:52:28;12.05;;;4.78;;
7747;SDS011;3918;42.564;23.164;2023-08-21T08:54:59;64.07;;;7.78;;
7747;SDS011;3918;42.564;23.164;2023-08-21T08:57:25;9.20;;;4.50;;
7747;SDS011;3918;42.564;23.164;2023-08-21T08:59:52;12.05;;;4.18;;
7747;SDS011;3918;42.564;23.164;2023-08-21T09:02:19;9.23;;;4.60;;
7747;SDS011;3918;42.564;23.164;2023-08-21T09:04:46;5.20;;;4.65;;
7747;SDS011;3918;42.564;23.164;2023-08-21T09:07:12;9.00;;;4.82;;
7747;SDS011;3918;42.564;23.164;2023-08-21T09:09:44;6.07;;;4.50;;
7747;SDS011;3918;42.564;23.164;2023-08-21T09:12:13;11.25;;;5.18;;
7747;SDS011;3918;42.564;23.164;2023-08-21T09:14:41;5.45;;;4.60;;
7747;SDS011;3918;42.564;23.164;2023-08-21T09:17:09;7.65;;;4.53;;
7747;SDS011;3918;42.564;23.164;2023-08-21T09:19:36;9.18;;;4.95;;
7747;SDS011;3918;42.564;23.164;2023-08-21T09:22:09;4.90;;;4.47;;
7747;SDS011;3918;42.564;23.164;2023-08-21T09:24:38;5.40;;;4.55;;
7747;SDS011;3918;42.564;23.164;2023-08-21T09:27:10;4.93;;;4.53;;
7747;SDS011;3918;42.564;23.164;2023-08-21T09:29:41;6.50;;;4.90;;
7747;SDS011;3918;42.564;23.164;2023-08-21T09:32:08;5.45;;;4.93;;
7747;SDS011;3918;42.564;23.164;2023-08-21T09:34:35;7.50;;;4.47;;
7747;SDS011;3918;42.564;23.164;2023-08-21T09:37:04;12.27;;;5.38;;
7747;SDS011;3918;42.564;23.164;2023-08-21T09:39:33;18.27;;;5.05;;
7747;SDS011;3918;42.564;23.164;2023-08-21T09:42:00;9.48;;;5.10;;
7747;SDS011;3918;42.564;23.164;2023-08-21T09:44:29;6.13;;;4.90;;
7747;SDS011;3918;42.564;23.164;2023-08-21T09:47:02;9.90;;;5.25;;
7747;SDS011;3918;42.564;23.164;2023-08-21T09:49:29;11.65;;;4.32;;
7747;SDS011;3918;42.564;23.164;2023-08-21T09:51:57;7.18;;;4.82;;
7747;SDS011;3918;42.564;23.164;2023-08-21T09:54:25;6.60;;;4.70;;
7747;SDS011;3918;42.564;23.164;2023-08-21T09:56:52;8.82;;;5.38;;
7747;SDS011;3918;42.564;23.164;2023-08-21T09:59:19;10.05;;;4.88;;
7747;SDS011;3918;42.564;23.164;2023-08-21T10:01:49;4.85;;;4.45;;
7747;SDS011;3918;42.564;23.164;2023-08-21T10:04:17;5.18;;;4.82;;
7747;SDS011;3918;42.564;23.164;2023-08-21T10:06:44;5.15;;;4.68;;
7747;SDS011;3918;42.564;23.164;2023-08-21T10:09:13;6.72;;;5.07;;
7747;SDS011;3918;42.564;23.164;2023-08-21T10:11:42;6.22;;;5.38;;
7747;SDS011;3918;42.564;23.164;2023-08-21T10:14:09;6.45;;;5.25;;
7747;SDS011;3918;42.564;23.164;2023-08-21T10:16:36;7.40;;;5.22;;
7747;SDS011;3918;42.564;23.164;2023-08-21T10:19:04;5.57;;;5.00;;
7747;SDS011;3918;42.564;23.164;2023-08-21T10:21:34;5.20;;;4.70;;
7747;SDS011;3918;42.564;23.164;2023-08-21T10:24:01;21.88;;;5.43;;
7747;SDS011;3918;42.564;23.164;2023-08-21T10:26:28;5.55;;;4.93;;
7747;SDS011;3918;42.564;23.164;2023-08-21T10:28:55;6.40;;;4.50;;
7747;SDS011;3918;42.564;23.164;2023-08-21T10:31:33;5.13;;;4.72;;
7747;SDS011;3918;42.564;23.164;2023-08-21T10:34:05;8.48;;;5.05;;
7747;SDS011;3918;42.564;23.164;2023-08-21T10:36:39;7.15;;;4.82;;
7747;SDS011;3918;42.564;23.164;2023-08-21T10:39:13;7.80;;;4.80;;
7747;SDS011;3918;42.564;23.164;2023-08-21T10:41:42;5.30;;;4.35;;
7747;SDS011;3918;42.564;23.164;2023-08-21T10:44:32;5.03;;;4.18;;
7747;SDS011;3918;42.564;23.164;2023-08-21T10:47:12;9.23;;;5.55;;
7747;SDS011;3918;42.564;23.164;2023-08-21T10:49:43;6.13;;;5.43;;
7747;SDS011;3918;42.564;23.164;2023-08-21T10:52:13;4.90;;;4.40;;
7747;SDS011;3918;42.564;23.164;2023-08-21T10:54:44;8.27;;;5.03;;
7747;SDS011;3918;42.564;23.164;2023-08-21T10:57:12;5.10;;;4.60;;
7747;SDS011;3918;42.564;23.164;2023-08-21T10:59:48;5.38;;;4.72;;
7747;SDS011;3918;42.564;23.164;2023-08-21T11:02:15;5.13;;;4.35;;
7747;SDS011;3918;42.564;23.164;2023-08-21T11:04:44;11.05;;;4.88;;
7747;SDS011;3918;42.564;23.164;2023-08-21T11:07:11;6.30;;;4.22;;
7747;SDS011;3918;42.564;23.164;2023-08-21T11:09:38;4.60;;;4.20;;
7747;SDS011;3918;42.564;23.164;2023-08-21T11:12:06;5.03;;;4.53;;
7747;SDS011;3918;42.564;23.164;2023-08-21T11:14:34;8.20;;;4.28;;
7747;SDS011;3918;42.564;23.164;2023-08-21T11:17:01;18.58;;;5.28;;
7747;SDS011;3918;42.564;23.164;2023-08-21T11:19:29;8.68;;;5.47;;
7747;SDS011;3918;42.564;23.164;2023-08-21T11:21:58;9.07;;;5.22;;
7747;SDS011;3918;42.564;23.164;2023-08-21T11:24:39;16.05;;;4.85;;
7747;SDS011;3918;42.564;23.164;2023-08-21T11:27:07;6.53;;;4.85;;
7747;SDS011;3918;42.564;23.164;2023-08-21T11:29:36;6.35;;;4.47;;
7747;SDS011;3918;42.564;23.164;2023-08-21T11:32:07;5.00;;;4.35;;
7747;SDS011;3918;42.564;23.164;2023-08-21T11:34:35;5.05;;;4.45;;
7747;SDS011;3918;42.564;23.164;2023-08-21T11:37:03;7.07;;;4.65;;
7747;SDS011;3918;42.564;23.164;2023-08-21T11:39:43;7.80;;;4.57;;
7747;SDS011;3918;42.564;23.164;2023-08-21T11:42:11;8.43;;;4.13;;
7747;SDS011;3918;42.564;23.164;2023-08-21T11:44:42;5.07;;;4.65;;
7747;SDS011;3918;42.564;23.164;2023-08-21T11:47:10;25.25;;;6.05;;
7747;SDS011;3918;42.564;23.164;2023-08-21T11:49:39;6.72;;;4.57;;
7747;SDS011;3918;42.564;23.164;2023-08-21T11:52:09;5.35;;;4.70;;
7747;SDS011;3918;42.564;23.164;2023-08-21T11:54:37;8.43;;;4.75;;
7747;SDS011;3918;42.564;23.164;2023-08-21T11:57:06;7.78;;;5.10;;
7747;SDS011;3918;42.564;23.164;2023-08-21T11:59:34;8.77;;;5.40;;
7747;SDS011;3918;42.564;23.164;2023-08-21T12:02:01;6.93;;;4.65;;
7747;SDS011;3918;42.564;23.164;2023-08-21T12:04:27;8.60;;;4.55;;
7747;SDS011;3918;42.564;23.164;2023-08-21T12:06:54;6.95;;;4.35;;
7747;SDS011;3918;42.564;23.164;2023-08-21T12:09:22;8.80;;;4.80;;
7747;SDS011;3918;42.564;23.164;2023-08-21T12:11:49;7.22;;;4.95;;
7747;SDS011;3918;42.564;23.164;2023-08-21T12:14:16;4.93;;;4.53;;
7747;SDS011;3918;42.564;23.164;2023-08-21T12:16:43;5.35;;;4.28;;
7747;SDS011;3918;42.564;23.164;2023-08-21T12:19:10;11.43;;;6.05;;
7747;SDS011;3918;42.564;23.164;2023-08-21T12:21:37;10.13;;;4.70;;
7747;SDS011;3918;42.564;23.164;2023-08-21T12:24:04;11.48;;;5.38;;
7747;SDS011;3918;42.564;23.164;2023-08-21T12:26:33;5.47;;;4.70;;
7747;SDS011;3918;42.564;23.164;2023-08-21T12:29:00;8.27;;;4.82;;
7747;SDS011;3918;42.564;23.164;2023-08-21T12:31:27;4.90;;;4.40;;
7747;SDS011;3918;42.564;23.164;2023-08-21T12:33:54;10.88;;;5.03;;
7747;SDS011;3918;42.564;23.164;2023-08-21T12:36:21;7.63;;;4.80;;
7747;SDS011;3918;42.564;23.164;2023-08-21T12:38:48;7.13;;;4.28;;
7747;SDS011;3918;42.564;23.164;2023-08-21T12:41:15;8.63;;;4.55;;
7747;SDS011;3918;42.564;23.164;2023-08-21T12:43:45;4.88;;;4.38;;
7747;SDS011;3918;42.564;23.164;2023-08-21T12:46:12;5.53;;;4.45;;
7747;SDS011;3918;42.564;23.164;2023-08-21T12:48:39;8.38;;;4.97;;
7747;SDS011;3918;42.564;23.164;2023-08-21T12:51:07;7.45;;;4.60;;
7747;SDS011;3918;42.564;23.164;2023-08-21T12:53:34;16.00;;;4.70;;
7747;SDS011;3918;42.564;23.164;2023-08-21T12:56:01;6.47;;;4.43;;
7747;SDS011;3918;42.564;23.164;2023-08-21T12:58:28;4.97;;;4.35;;
7747;SDS011;3918;42.564;23.164;2023-08-21T13:00:56;8.40;;;5.35;;
7747;SDS011;3918;42.564;23.164;2023-08-21T13:03:23;12.43;;;5.65;;
7747;SDS011;3918;42.564;23.164;2023-08-21T13:05:50;23.02;;;5.30;;
7747;SDS011;3918;42.564;23.164;2023-08-21T13:08:17;13.95;;;5.18;;
7747;SDS011;3918;42.564;23.164;2023-08-21T13:10:43;7.50;;;4.30;;
7747;SDS011;3918;42.564;23.164;2023-08-21T13:13:12;5.18;;;4.38;;
7747;SDS011;3918;42.564;23.164;2023-08-21T13:15:39;5.13;;;4.47;;
7747;SDS011;3918;42.564;23.164;2023-08-21T13:18:10;7.07;;;4.60;;
7747;SDS011;3918;42.564;23.164;2023-08-21T13:20:41;5.43;;;4.93;;
7747;SDS011;3918;42.564;23.164;2023-08-21T13:23:08;4.95;;;4.45;;
7747;SDS011;3918;42.564;23.164;2023-08-21T13:25:35;6.30;;;4.53;;
7747;SDS011;3918;42.564;23.164;2023-08-21T13:28:02;5.55;;;4.60;;
7747;SDS011;3918;42.564;23.164;2023-08-21T13:30:29;6.72;;;4.85;;
7747;SDS011;3918;42.564;23.164;2023-08-21T13:32:57;7.72;;;4.93;;
7747;SDS011;3918;42.564;23.164;2023-08-21T13:35:25;7.20;;;4.47;;
7747;SDS011;3918;42.564;23.164;2023-08-21T13:37:52;4.85;;;4.45;;
7747;SDS011;3918;42.564;23.164;2023-08-21T13:40:18;4.68;;;4.20;;
7747;SDS011;3918;42.564;23.164;2023-08-21T13:42:46;5.28;;;4.35;;
7747;SDS011;3918;42.564;23.164;2023-08-21T13:45:14;4.90;;;4.40;;
7747;SDS011;3918;42.564;23.164;2023-08-21T13:47:42;8.98;;;4.38;;
7747;SDS011;3918;42.564;23.164;2023-08-21T13:50:11;9.20;;;4.97;;
7747;SDS011;3918;42.564;23.164;2023-08-21T13:52:39;15.20;;;5.20;;
7747;SDS011;3918;42.564;23.164;2023-08-21T13:55:07;6.93;;;4.80;;
7747;SDS011;3918;42.564;23.164;2023-08-21T13:57:34;21.88;;;5.93;;
7747;SDS011;3918;42.564;23.164;2023-08-21T14:00:02;8.20;;;4.80;;
7747;SDS011;3918;42.564;23.164;2023-08-21T14:02:32;5.50;;;4.63;;
7747;SDS011;3918;42.564;23.164;2023-08-21T14:04:59;8.15;;;5.38;;
7747;SDS011;3918;42.564;23.164;2023-08-21T14:07:26;6.47;;;4.50;;
7747;SDS011;3918;42.564;23.164;2023-08-21T14:09:54;6.30;;;4.45;;
7747;SDS011;3918;42.564;23.164;2023-08-21T14:12:21;19.70;;;5.03;;
7747;SDS011;3918;42.564;23.164;2023-08-21T14:14:48;4.55;;;4.15;;
7747;SDS011;3918;42.564;23.164;2023-08-21T14:17:15;23.88;;;6.00;;
7747;SDS011;3918;42.564;23.164;2023-08-21T14:19:41;10.13;;;4.57;;
7747;SDS011;3918;42.564;23.164;2023-08-21T14:22:08;5.38;;;4.88;;
7747;SDS011;3918;42.564;23.164;2023-08-21T14:24:35;6.97;;;4.55;;
7747;SDS011;3918;42.564;23.164;2023-08-21T14:27:03;10.18;;;5.25;;
7747;SDS011;3918;42.564;23.164;2023-08-21T14:29:30;5.68;;;4.13;;
7747;SDS011;3918;42.564;23.164;2023-08-21T14:31:57;5.75;;;4.53;;
7747;SDS011;3918;42.564;23.164;2023-08-21T14:34:25;11.88;;;4.90;;
7747;SDS011;3918;42.564;23.164;2023-08-21T14:36:53;5.50;;;5.00;;
7747;SDS011;3918;42.564;23.164;2023-08-21T14:39:21;8.70;;;4.47;;
7747;SDS011;3918;42.564;23.164;2023-08-21T14:41:52;5.90;;;5.30;;
7747;SDS011;3918;42.564;23.164;2023-08-21T14:44:21;5.07;;;4.57;;
7747;SDS011;3918;42.564;23.164;2023-08-21T14:46:48;4.82;;;4.35;;
7747;SDS011;3918;42.564;23.164;2023-08-21T14:49:16;7.38;;;5.10;;
7747;SDS011;3918;42.564;23.164;2023-08-21T14:51:42;5.70;;;4.18;;
7747;SDS011;3918;42.564;23.164;2023-08-21T14:54:11;7.05;;;4.82;;
7747;SDS011;3918;42.564;23.164;2023-08-21T14:56:38;5.03;;;4.60;;
7747;SDS011;3918;42.564;23.164;2023-08-21T14:59:06;8.07;;;4.72;;
7747;SDS011;3918;42.564;23.164;2023-08-21T15:01:37;7.55;;;4.68;;
7747;SDS011;3918;42.564;23.164;2023-08-21T15:04:04;6.70;;;5.03;;
7747;SDS011;3918;42.564;23.164;2023-08-21T15:06:31;7.75;;;4.68;;
7747;SDS011;3918;42.564;23.164;2023-08-21T15:08:58;5.13;;;4.68;;
7747;SDS011;3918;42.564;23.164;2023-08-21T15:11:25;6.25;;;4.63;;
7747;SDS011;3918;42.564;23.164;2023-08-21T15:13:52;9.73;;;4.97;;
7747;SDS011;3918;42.564;23.164;2023-08-21T15:16:18;7.72;;;4.55;;
7747;SDS011;3918;42.564;23.164;2023-08-21T15:18:47;7.72;;;4.65;;
7747;SDS011;3918;42.564;23.164;2023-08-21T15:21:17;6.72;;;5.10;;
7747;SDS011;3918;42.564;23.164;2023-08-21T15:23:44;6.40;;;4.65;;
7747;SDS011;3918;42.564;23.164;2023-08-21T15:26:11;5.15;;;4.65;;
7747;SDS011;3918;42.564;23.164;2023-08-21T15:28:37;6.53;;;5.68;;
7747;SDS011;3918;42.564;23.164;2023-08-21T15:31:04;8.95;;;5.38;;
7747;SDS011;3918;42.564;23.164;2023-08-21T15:33:32;6.10;;;5.60;;
7747;SDS011;3918;42.564;23.164;2023-08-21T15:36:00;8.30;;;5.72;;
7747;SDS011;3918;42.564;23.164;2023-08-21T15:38:27;12.77;;;5.70;;
7747;SDS011;3918;42.564;23.164;2023-08-21T15:40:54;7.07;;;5.68;;
7747;SDS011;3918;42.564;23.164;2023-08-21T15:43:20;18.48;;;6.35;;
7747;SDS011;3918;42.564;23.164;2023-08-21T15:45:47;12.77;;;6.38;;
7747;SDS011;3918;42.564;23.164;2023-08-21T15:48:14;7.95;;;6.43;;
7747;SDS011;3918;42.564;23.164;2023-08-21T15:50:41;13.52;;;6.72;;
7747;SDS011;3918;42.564;23.164;2023-08-21T15:53:09;10.65;;;7.15;;
7747;SDS011;3918;42.564;23.164;2023-08-21T15:55:35;14.45;;;7.25;;
7747;SDS011;3918;42.564;23.164;2023-08-21T15:58:02;11.15;;;6.85;;
7747;SDS011;3918;42.564;23.164;2023-08-21T16:00:31;10.07;;;7.15;;
7747;SDS011;3918;42.564;23.164;2023-08-21T16:02:58;8.60;;;6.65;;
7747;SDS011;3918;42.564;23.164;2023-08-21T16:05:24;18.40;;;7.30;;
7747;SDS011;3918;42.564;23.164;2023-08-21T16:07:51;11.52;;;7.35;;
7747;SDS011;3918;42.564;23.164;2023-08-21T16:10:22;8.82;;;6.95;;
7747;SDS011;3918;42.564;23.164;2023-08-21T16:12:49;7.32;;;6.50;;
7747;SDS011;3918;42.564;23.164;2023-08-21T16:15:15;9.68;;;6.97;;
7747;SDS011;3918;42.564;23.164;2023-08-21T16:17:42;10.00;;;6.88;;
7747;SDS011;3918;42.564;23.164;2023-08-21T16:20:11;8.95;;;6.70;;
7747;SDS011;3918;42.564;23.164;2023-08-21T16:22:40;13.00;;;7.40;;
7747;SDS011;3918;42.564;23.164;2023-08-21T16:25:07;8.80;;;7.00;;
7747;SDS011;3918;42.564;23.164;2023-08-21T16:27:39;14.45;;;7.70;;
7747;SDS011;3918;42.564;23.164;2023-08-21T16:30:06;11.18;;;6.70;;
7747;SDS011;3918;42.564;23.164;2023-08-21T16:32:34;10.60;;;7.25;;
7747;SDS011;3918;42.564;23.164;2023-08-21T16:35:01;12.48;;;6.93;;
7747;SDS011;3918;42.564;23.164;2023-08-21T16:37:28;15.68;;;7.90;;
7747;SDS011;3918;42.564;23.164;2023-08-21T16:39:55;10.82;;;7.13;;
7747;SDS011;3918;42.564;23.164;2023-08-21T16:42:22;11.70;;;8.73;;
7747;SDS011;3918;42.564;23.164;2023-08-21T16:44:50;30.52;;;14.73;;
7747;SDS011;3918;42.564;23.164;2023-08-21T16:47:17;25.33;;;12.55;;
7747;SDS011;3918;42.564;23.164;2023-08-21T16:49:44;18.98;;;11.05;;
7747;SDS011;3918;42.564;23.164;2023-08-21T16:52:11;14.45;;;8.93;;
7747;SDS011;3918;42.564;23.164;2023-08-21T16:54:38;22.30;;;10.00;;
7747;SDS011;3918;42.564;23.164;2023-08-21T16:57:05;10.95;;;8.05;;
7747;SDS011;3918;42.564;23.164;2023-08-21T16:59:32;9.20;;;7.05;;
7747;SDS011;3918;42.564;23.164;2023-08-21T17:02:00;9.18;;;7.65;;
7747;SDS011;3918;42.564;23.164;2023-08-21T17:04:27;16.02;;;8.45;;
7747;SDS011;3918;42.564;23.164;2023-08-21T17:06:54;11.43;;;7.97;;
7747;SDS011;3918;42.564;23.164;2023-08-21T17:09:21;9.57;;;8.32;;
7747;SDS011;3918;42.564;23.164;2023-08-21T17:11:48;10.55;;;7.40;;
7747;SDS011;3918;42.564;23.164;2023-08-21T17:14:14;14.48;;;7.80;;
7747;SDS011;3918;42.564;23.164;2023-08-21T17:16:41;12.10;;;7.65;;
7747;SDS011;3918;42.564;23.164;2023-08-21T17:19:09;10.18;;;9.00;;
7747;SDS011;3918;42.564;23.164;2023-08-21T17:21:36;14.25;;;7.80;;
7747;SDS011;3918;42.564;23.164;2023-08-21T17:24:03;12.68;;;8.63;;
7747;SDS011;3918;42.564;23.164;2023-08-21T17:26:30;10.18;;;7.60;;
7747;SDS011;3918;42.564;23.164;2023-08-21T17:28:57;8.30;;;7.30;;
7747;SDS011;3918;42.564;23.164;2023-08-21T17:31:25;9.40;;;8.00;;
7747;SDS011;3918;42.564;23.164;2023-08-21T17:33:52;9.77;;;7.85;;
7747;SDS011;3918;42.564;23.164;2023-08-21T17:36:20;9.48;;;8.32;;
7747;SDS011;3918;42.564;23.164;2023-08-21T17:38:47;11.15;;;8.00;;
7747;SDS011;3918;42.564;23.164;2023-08-21T17:41:14;9.80;;;8.32;;
7747;SDS011;3918;42.564;23.164;2023-08-21T17:43:40;11.02;;;8.65;;
7747;SDS011;3918;42.564;23.164;2023-08-21T17:46:08;12.90;;;8.02;;
7747;SDS011;3918;42.564;23.164;2023-08-21T17:48:35;10.13;;;8.55;;
7747;SDS011;3918;42.564;23.164;2023-08-21T17:51:02;9.20;;;8.20;;
7747;SDS011;3918;42.564;23.164;2023-08-21T17:53:31;10.38;;;8.32;;
7747;SDS011;3918;42.564;23.164;2023-08-21T17:55:58;10.68;;;8.13;;
7747;SDS011;3918;42.564;23.164;2023-08-21T17:58:24;8.52;;;7.65;;
7747;SDS011;3918;42.564;23.164;2023-08-21T18:00:51;8.75;;;7.65;;
7747;SDS011;3918;42.564;23.164;2023-08-21T18:03:18;10.40;;;7.93;;
7747;SDS011;3918;42.564;23.164;2023-08-21T18:05:44;8.85;;;7.43;;
7747;SDS011;3918;42.564;23.164;2023-08-21T18:08:11;8.63;;;7.63;;
7747;SDS011;3918;42.564;23.164;2023-08-21T18:10:39;15.05;;;7.50;;
7747;SDS011;3918;42.564;23.164;2023-08-21T18:13:09;9.75;;;7.32;;
7747;SDS011;3918;42.564;23.164;2023-08-21T18:15:35;10.93;;;7.60;;
7747;SDS011;3918;42.564;23.164;2023-08-21T18:18:02;10.40;;;7.68;;
7747;SDS011;3918;42.564;23.164;2023-08-21T18:20:50;7.68;;;6.93;;
7747;SDS011;3918;42.564;23.164;2023-08-21T18:23:20;8.50;;;7.60;;
7747;SDS011;3918;42.564;23.164;2023-08-21T18:25:49;17.85;;;8.07;;
7747;SDS011;3918;42.564;23.164;2023-08-21T18:28:16;8.50;;;7.63;;
7747;SDS011;3918;42.564;23.164;2023-08-21T18:30:48;8.90;;;7.75;;
7747;SDS011;3918;42.564;23.164;2023-08-21T18:33:16;11.43;;;7.85;;
7747;SDS011;3918;42.564;23.164;2023-08-21T18:35:43;9.23;;;8.23;;
7747;SDS011;3918;42.564;23.164;2023-08-21T18:38:09;12.35;;;8.20;;
7747;SDS011;3918;42.564;23.164;2023-08-21T18:40:36;9.10;;;7.50;;
7747;SDS011;3918;42.564;23.164;2023-08-21T18:43:05;10.32;;;8.35;;
7747;SDS011;3918;42.564;23.164;2023-08-21T18:45:32;9.95;;;7.93;;
7747;SDS011;3918;42.564;23.164;2023-08-21T18:47:59;7.90;;;7.10;;
7747;SDS011;3918;42.564;23.164;2023-08-21T18:50:32;11.40;;;8.70;;
7747;SDS011;3918;42.564;23.164;2023-08-21T18:53:00;10.40;;;7.63;;
7747;SDS011;3918;42.564;23.164;2023-08-21T18:55:27;8.73;;;7.43;;
7747;SDS011;3918;42.564;23.164;2023-08-21T18:57:54;9.18;;;8.20;;
7747;SDS011;3918;42.564;23.164;2023-08-21T19:00:23;8.00;;;7.20;;
